Time;durP1;ratioP1;P1;durP2;ratioP2;P2;SDS_P1;SDS_P2;PMS_P1;PMS_P2;Temp;Humidity;BMP_temperature;BMP_pressure;BME280_temperature;BME280_humidity;BME280_pressure;Samples;Min_cycle;Max_cycle;Signal;HPM_P1;HPM_P2
2023/05/27 00:02:23;;;;;;;15.23;6.22;;;6.40;99.90;;;;;;4988844;28;20034;-79
2023/05/27 00:04:49;;;;;;;14.48;5.90;;;6.40;99.90;;;;;;4991510;28;20048;-79
2023/05/27 00:07:14;;;;;;;12.18;5.68;;;6.30;99.90;;;;;;4975378;28;20092;-79
2023/05/27 00:09:40;;;;;;;15.00;6.18;;;6.30;99.90;;;;;;4989136;28;20042;-79
2023/05/27 00:12:06;;;;;;;12.77;6.18;;;6.20;99.90;;;;;;4992804;28;20058;-80
2023/05/27 00:14:31;;;;;;;14.35;6.00;;;6.10;99.90;;;;;;4942167;28;20054;-80
2023/05/27 00:16:57;;;;;;;13.73;6.15;;;6.10;99.90;;;;;;4960150;28;20046;-79
2023/05/27 00:19:24;;;;;;;18.38;6.25;;;6.10;99.90;;;;;;4973518;28;20126;-79
2023/05/27 00:21:52;;;;;;;11.48;4.50;;;6.00;99.90;;;;;;4942726;28;20082;-79
2023/05/27 00:24:18;;;;;;;14.57;5.60;;;5.80;99.90;;;;;;4974953;28;20124;-79
2023/05/27 00:26:44;;;;;;;17.25;5.30;;;5.80;99.90;;;;;;4954680;28;20046;-79
2023/05/27 00:29:10;;;;;;;19.52;5.85;;;5.80;99.90;;;;;;4974891;28;20038;-79
2023/05/27 00:31:35;;;;;;;18.05;6.35;;;5.80;99.90;;;;;;4958884;28;20487;-79
2023/05/27 00:34:01;;;;;;;17.05;6.35;;;5.90;99.90;;;;;;4959936;28;20046;-79
2023/05/27 00:36:27;;;;;;;14.70;6.10;;;5.80;99.90;;;;;;4957841;28;20042;-79
2023/05/27 00:38:52;;;;;;;15.23;6.00;;;5.80;99.90;;;;;;4955891;28;20038;-80
2023/05/27 00:41:19;;;;;;;19.75;6.22;;;5.70;99.90;;;;;;4943228;28;20129;-79
2023/05/27 00:43:45;;;;;;;15.98;6.85;;;5.70;99.90;;;;;;4962997;28;20207;-79
2023/05/27 00:46:11;;;;;;;13.90;5.75;;;5.60;99.90;;;;;;4941852;28;20038;-79
2023/05/27 00:48:37;;;;;;;9.40;5.45;;;5.50;99.90;;;;;;4975021;28;20042;-80
2023/05/27 00:51:03;;;;;;;27.45;6.07;;;5.50;99.90;;;;;;4954628;28;20050;-79
2023/05/27 00:53:38;;;;;;;14.75;5.43;;;5.50;99.90;;;;;;4956986;28;20042;-80
2023/05/27 00:56:05;;;;;;;13.93;5.82;;;5.50;99.90;;;;;;4974745;28;20054;-80
2023/05/27 00:58:30;;;;;;;10.45;4.18;;;5.50;99.90;;;;;;4942511;28;20456;-79
2023/05/27 01:00:56;;;;;;;13.13;5.07;;;5.50;99.90;;;;;;4960730;28;20838;-80
2023/05/27 01:03:23;;;;;;;10.05;4.40;;;5.40;99.90;;;;;;4976544;28;20133;-79
2023/05/27 01:05:55;;;;;;;12.15;4.50;;;5.40;99.90;;;;;;4942532;28;20042;-80
2023/05/27 01:08:31;;;;;;;10.57;4.85;;;5.40;99.90;;;;;;4957349;28;20213;-80
2023/05/27 01:10:56;;;;;;;13.63;4.85;;;5.40;99.90;;;;;;4940398;28;20282;-79
2023/05/27 01:13:56;;;;;;;15.07;4.75;;;5.30;99.90;;;;;;4996862;28;20428;-80
2023/05/27 01:16:24;;;;;;;11.25;4.72;;;5.30;99.90;;;;;;4979659;28;20060;-79
2023/05/27 01:18:53;;;;;;;15.25;5.50;;;5.30;99.90;;;;;;4995157;28;21100;-80
2023/05/27 01:21:21;;;;;;;18.15;5.60;;;5.40;99.90;;;;;;4994456;28;20184;-79
2023/05/27 01:23:48;;;;;;;17.92;6.32;;;5.30;99.90;;;;;;5009480;28;20054;-80
2023/05/27 01:26:14;;;;;;;17.38;6.28;;;5.30;99.90;;;;;;4993362;28;20124;-80
2023/05/27 01:28:40;;;;;;;18.20;6.07;;;5.30;99.90;;;;;;5015080;28;20189;-80
2023/05/27 01:31:17;;;;;;;10.85;5.20;;;5.30;99.90;;;;;;5000081;28;20929;-80
2023/05/27 01:33:49;;;;;;;14.52;5.40;;;5.20;99.90;;;;;;5013497;28;20128;-80
2023/05/27 01:36:20;;;;;;;9.75;4.50;;;5.20;99.90;;;;;;5006361;28;20039;-79
2023/05/27 01:38:48;;;;;;;10.82;3.92;;;5.10;99.90;;;;;;5007544;28;20044;-79
2023/05/27 01:41:15;;;;;;;9.77;4.68;;;4.90;99.90;;;;;;4998062;28;20128;-80
2023/05/27 01:43:41;;;;;;;15.90;6.45;;;5.00;99.90;;;;;;5014823;28;20045;-80
2023/05/27 01:46:07;;;;;;;13.70;5.85;;;5.10;99.90;;;;;;4993218;28;20037;-80
2023/05/27 01:48:33;;;;;;;16.63;6.18;;;5.30;99.90;;;;;;4986265;28;20058;-80
2023/05/27 01:50:59;;;;;;;11.68;4.72;;;5.30;99.90;;;;;;5006417;28;20041;-80
2023/05/27 01:53:24;;;;;;;15.00;5.38;;;5.30;99.90;;;;;;4992642;28;20073;-80
2023/05/27 01:55:50;;;;;;;16.33;6.68;;;5.40;99.90;;;;;;4994871;28;20045;-80
2023/05/27 01:58:16;;;;;;;24.10;7.07;;;5.40;99.90;;;;;;4978708;28;20046;-80
2023/05/27 02:00:41;;;;;;;18.85;6.70;;;5.60;99.90;;;;;;4991402;28;20042;-80
2023/05/27 02:03:07;;;;;;;17.00;5.68;;;5.70;99.90;;;;;;4990617;28;20077;-80
2023/05/27 02:05:33;;;;;;;16.83;5.70;;;5.70;99.90;;;;;;5008795;28;20042;-80
2023/05/27 02:07:58;;;;;;;19.50;6.82;;;5.80;99.90;;;;;;4997425;28;20546;-80
2023/05/27 02:10:24;;;;;;;18.83;6.55;;;5.80;99.90;;;;;;4998653;28;20038;-80
2023/05/27 02:12:49;;;;;;;11.70;5.70;;;5.80;99.90;;;;;;4997925;28;20068;-80
2023/05/27 02:15:15;;;;;;;13.85;5.65;;;5.70;99.90;;;;;;5014468;28;20472;-80
2023/05/27 02:17:44;;;;;;;18.15;7.25;;;5.80;99.90;;;;;;4991648;28;20036;-80
2023/05/27 02:20:11;;;;;;;19.35;6.43;;;5.80;99.90;;;;;;4992436;28;20044;-80
2023/05/27 02:22:36;;;;;;;16.38;5.88;;;5.80;99.90;;;;;;4992641;28;20099;-80
2023/05/27 02:25:02;;;;;;;15.20;6.13;;;5.90;99.90;;;;;;5007050;28;20176;-80
2023/05/27 02:27:28;;;;;;;16.30;6.07;;;5.80;99.90;;;;;;5009588;28;20129;-80
2023/05/27 02:29:53;;;;;;;23.13;5.50;;;5.80;99.90;;;;;;4994780;28;20127;-79
2023/05/27 02:32:19;;;;;;;16.33;6.32;;;5.70;99.90;;;;;;4991001;28;20387;-80
2023/05/27 02:34:45;;;;;;;22.45;6.63;;;5.80;99.90;;;;;;4993205;28;20046;-80
2023/05/27 02:37:10;;;;;;;22.67;6.93;;;6.00;99.90;;;;;;4976550;28;20075;-80
2023/05/27 02:39:36;;;;;;;18.13;6.57;;;6.10;99.90;;;;;;5007432;28;20050;-80
2023/05/27 02:42:02;;;;;;;20.42;6.65;;;6.10;99.90;;;;;;4992151;28;20208;-80
2023/05/27 02:44:28;;;;;;;20.65;6.75;;;6.20;99.90;;;;;;4999070;28;20602;-80
2023/05/27 02:46:53;;;;;;;26.77;7.18;;;6.30;99.90;;;;;;5011382;28;20034;-80
2023/05/27 02:49:19;;;;;;;17.77;6.78;;;6.50;99.90;;;;;;4992895;28;20044;-80
2023/05/27 02:51:45;;;;;;;20.25;6.85;;;6.50;99.90;;;;;;5012255;28;20041;-80
2023/05/27 02:54:10;;;;;;;15.27;5.28;;;6.60;99.90;;;;;;4971134;28;20046;-80
2023/05/27 02:56:36;;;;;;;21.67;7.13;;;6.60;99.90;;;;;;4973288;28;20264;-80
2023/05/27 02:59:02;;;;;;;20.75;7.07;;;6.60;99.90;;;;;;4990579;28;20354;-80
2023/05/27 03:01:27;;;;;;;14.65;5.82;;;6.80;99.90;;;;;;4975974;28;20508;-80
2023/05/27 03:03:53;;;;;;;16.85;5.78;;;6.80;99.90;;;;;;5007350;28;20423;-80
2023/05/27 03:06:19;;;;;;;14.35;5.32;;;6.80;99.90;;;;;;5005061;28;20452;-80
2023/05/27 03:08:45;;;;;;;18.67;5.80;;;6.80;99.90;;;;;;4986929;28;20055;-80
2023/05/27 03:11:10;;;;;;;16.05;5.30;;;6.80;99.90;;;;;;4994924;28;20049;-78
2023/05/27 03:13:36;;;;;;;18.83;5.50;;;6.90;99.90;;;;;;4994169;28;20050;-81
2023/05/27 03:16:02;;;;;;;16.48;5.03;;;6.90;99.90;;;;;;4995086;28;20042;-80
2023/05/27 03:18:27;;;;;;;12.98;4.68;;;6.90;99.90;;;;;;4990675;28;20450;-80
2023/05/27 03:20:54;;;;;;;15.40;5.20;;;6.80;99.90;;;;;;4993425;28;20519;-80
2023/05/27 03:23:19;;;;;;;19.40;5.63;;;6.80;99.90;;;;;;5008741;28;20592;-80
2023/05/27 03:25:45;;;;;;;18.38;5.32;;;6.90;99.90;;;;;;5009955;28;20285;-80
2023/05/27 03:28:10;;;;;;;15.68;5.72;;;7.00;99.90;;;;;;4994677;28;20038;-80
2023/05/27 03:30:37;;;;;;;23.95;5.80;;;7.10;99.90;;;;;;4993791;28;20053;-80
2023/05/27 03:33:03;;;;;;;22.02;6.50;;;7.20;99.90;;;;;;4990074;28;20054;-80
2023/05/27 03:35:29;;;;;;;15.95;5.53;;;7.20;99.90;;;;;;4976559;28;20042;-80
2023/05/27 03:37:55;;;;;;;14.68;5.65;;;7.20;99.90;;;;;;4991693;28;20097;-80
2023/05/27 03:40:20;;;;;;;16.27;5.55;;;7.20;99.90;;;;;;5008318;28;20041;-80
2023/05/27 03:42:46;;;;;;;14.07;5.38;;;7.30;99.90;;;;;;5012199;28;20542;-80
2023/05/27 03:45:12;;;;;;;15.98;5.85;;;7.30;99.90;;;;;;4992604;28;20048;-80
2023/05/27 03:47:38;;;;;;;14.27;5.55;;;7.30;99.90;;;;;;4990946;28;20352;-80
2023/05/27 03:50:03;;;;;;;18.60;5.90;;;7.40;99.90;;;;;;5010986;28;20104;-80
2023/05/27 03:52:29;;;;;;;19.30;5.65;;;7.50;99.90;;;;;;4987588;28;20107;-80
2023/05/27 03:54:55;;;;;;;12.15;5.28;;;7.50;99.90;;;;;;4998417;28;20060;-80
2023/05/27 03:57:20;;;;;;;12.02;5.28;;;7.50;99.90;;;;;;4997283;28;20038;-80
2023/05/27 03:59:46;;;;;;;18.27;5.68;;;7.50;99.90;;;;;;5008040;28;20042;-80
2023/05/27 04:02:12;;;;;;;17.30;5.63;;;7.60;99.90;;;;;;4990793;28;20118;-80
2023/05/27 04:04:38;;;;;;;16.52;5.05;;;7.60;99.90;;;;;;4989540;28;20029;-80
2023/05/27 04:07:04;;;;;;;12.27;4.70;;;7.60;99.90;;;;;;5007570;28;20057;-80
2023/05/27 04:09:29;;;;;;;16.60;5.75;;;7.70;99.90;;;;;;4996273;28;20485;-80
2023/05/27 04:11:55;;;;;;;21.55;5.93;;;7.70;99.90;;;;;;4992159;28;20732;-80
2023/05/27 04:14:21;;;;;;;15.80;5.13;;;7.70;99.90;;;;;;4962617;28;20114;-80
2023/05/27 04:16:47;;;;;;;13.02;5.18;;;7.70;99.90;;;;;;4938692;28;20061;-80
2023/05/27 04:19:13;;;;;;;14.40;5.32;;;7.90;99.90;;;;;;4957620;28;20080;-81
2023/05/27 04:21:39;;;;;;;17.55;5.95;;;8.00;99.90;;;;;;4977177;28;20114;-80
2023/05/27 04:24:09;;;;;;;17.90;5.30;;;8.10;99.90;;;;;;4976453;28;20050;-80
2023/05/27 04:26:34;;;;;;;18.92;5.82;;;8.20;99.90;;;;;;4976404;28;20130;-80
2023/05/27 04:29:00;;;;;;;24.35;6.03;;;8.30;99.90;;;;;;4954003;28;20130;-80
2023/05/27 04:31:28;;;;;;;17.67;5.55;;;8.40;99.90;;;;;;4975156;28;20096;-80
2023/05/27 04:33:54;;;;;;;18.50;5.43;;;8.50;99.90;;;;;;4936608;28;20050;-80
2023/05/27 04:36:24;;;;;;;15.90;5.50;;;8.50;99.90;;;;;;4958987;28;20042;-80
2023/05/27 04:38:51;;;;;;;16.65;5.88;;;8.50;99.90;;;;;;4971880;28;20030;-80
2023/05/27 04:41:16;;;;;;;19.92;5.40;;;8.60;99.90;;;;;;4959800;28;20613;-80
2023/05/27 04:43:42;;;;;;;18.48;5.88;;;8.60;99.90;;;;;;4958385;28;20038;-80
2023/05/27 04:46:08;;;;;;;19.80;5.45;;;8.60;99.90;;;;;;4941221;28;20382;-80
2023/05/27 04:48:35;;;;;;;21.73;5.25;;;8.60;99.90;;;;;;4956292;28;20133;-80
2023/05/27 04:51:00;;;;;;;16.10;5.35;;;8.60;99.90;;;;;;4953883;28;20359;-80
2023/05/27 04:53:29;;;;;;;18.77;5.28;;;8.70;99.90;;;;;;4958663;28;20038;-80
2023/05/27 04:55:55;;;;;;;18.67;5.05;;;8.80;99.90;;;;;;4961134;28;20480;-80
2023/05/27 04:58:21;;;;;;;18.35;4.75;;;8.80;99.90;;;;;;4946281;28;20045;-80
2023/05/27 05:00:49;;;;;;;19.92;6.15;;;8.80;99.90;;;;;;4978242;28;20042;-80
2023/05/27 05:03:26;;;;;;;22.27;5.82;;;8.90;99.90;;;;;;4974761;28;20042;-80
2023/05/27 05:05:52;;;;;;;20.95;5.00;;;8.90;99.90;;;;;;4948658;28;20149;-80
2023/05/27 05:08:19;;;;;;;21.45;6.18;;;8.90;99.90;;;;;;4942674;28;20047;-80
2023/05/27 05:10:49;;;;;;;17.38;5.57;;;9.00;99.90;;;;;;4946982;28;20133;-80
2023/05/27 05:13:16;;;;;;;19.38;5.00;;;9.10;99.90;;;;;;4986267;28;20494;-80
2023/05/27 05:15:43;;;;;;;17.13;5.35;;;9.10;99.90;;;;;;4998656;28;20136;-80
2023/05/27 05:18:10;;;;;;;14.43;4.97;;;9.10;99.90;;;;;;4982037;28;20042;-80
2023/05/27 05:20:36;;;;;;;19.50;5.13;;;9.20;99.90;;;;;;4996969;28;20366;-80
2023/05/27 05:23:02;;;;;;;15.13;4.90;;;9.30;99.90;;;;;;4978092;28;20057;-80
2023/05/27 05:25:29;;;;;;;16.67;4.93;;;9.30;99.90;;;;;;4999490;28;20034;-80
2023/05/27 05:27:56;;;;;;;24.48;5.20;;;9.40;99.90;;;;;;5012306;28;20347;-80
2023/05/27 05:30:22;;;;;;;18.67;5.38;;;9.40;99.90;;;;;;4980055;28;20049;-79
2023/05/27 05:32:48;;;;;;;13.07;4.78;;;9.50;99.90;;;;;;5009682;28;20057;-80
2023/05/27 05:35:14;;;;;;;13.75;4.80;;;9.50;99.90;;;;;;4998515;28;20042;-80
2023/05/27 05:37:40;;;;;;;20.17;5.22;;;9.50;99.90;;;;;;4992846;28;20120;-80
2023/05/27 05:40:06;;;;;;;18.45;5.40;;;9.50;99.90;;;;;;4981094;28;20393;-80
2023/05/27 05:42:32;;;;;;;15.75;4.93;;;9.50;99.90;;;;;;4994387;28;20578;-81
2023/05/27 05:44:57;;;;;;;16.83;4.70;;;9.50;99.90;;;;;;4994712;28;20034;-80
2023/05/27 05:47:26;;;;;;;19.92;5.65;;;9.40;99.90;;;;;;5013307;28;20037;-80
2023/05/27 05:49:51;;;;;;;18.20;4.97;;;9.50;99.90;;;;;;5014145;28;20057;-80
2023/05/27 05:52:17;;;;;;;24.80;4.95;;;9.50;99.90;;;;;;4996009;28;20069;-80
2023/05/27 05:54:43;;;;;;;16.73;4.65;;;9.50;99.90;;;;;;5000487;28;20367;-80
2023/05/27 05:57:08;;;;;;;20.05;5.75;;;9.50;99.90;;;;;;5009213;28;20041;-80
2023/05/27 05:59:37;;;;;;;14.18;5.45;;;9.60;99.90;;;;;;4994590;28;20450;-80
2023/05/27 06:02:03;;;;;;;17.83;5.45;;;9.60;99.90;;;;;;4996614;28;20103;-80
2023/05/27 06:04:28;;;;;;;18.33;5.85;;;9.70;99.90;;;;;;4996682;28;20042;-80
2023/05/27 06:06:57;;;;;;;20.40;5.55;;;9.80;99.90;;;;;;4993963;28;20553;-80
2023/05/27 06:09:23;;;;;;;18.38;5.85;;;9.90;99.90;;;;;;4996249;28;20042;-80
2023/05/27 06:11:48;;;;;;;17.45;5.65;;;10.10;99.90;;;;;;4993177;28;20041;-80
2023/05/27 06:14:14;;;;;;;23.50;5.88;;;10.20;99.90;;;;;;4962862;28;20038;-80
2023/05/27 06:16:40;;;;;;;16.13;5.50;;;10.30;99.90;;;;;;4962715;28;20034;-80
2023/05/27 06:19:06;;;;;;;16.02;5.03;;;10.60;99.90;;;;;;4945317;28;20038;-80
2023/05/27 06:21:33;;;;;;;18.13;5.25;;;10.70;99.90;;;;;;4941853;28;20070;-80
2023/05/27 06:23:59;;;;;;;22.50;5.35;;;10.90;99.90;;;;;;4972789;28;20026;-80
2023/05/27 06:26:27;;;;;;;19.75;5.47;;;11.00;99.90;;;;;;4978424;28;20493;-80
2023/05/27 06:28:53;;;;;;;17.58;4.85;;;11.30;99.90;;;;;;4940901;28;20101;-80
2023/05/27 06:31:18;;;;;;;19.60;5.72;;;11.30;99.90;;;;;;4962215;28;20042;-80
2023/05/27 06:33:44;;;;;;;18.35;5.40;;;11.40;99.90;;;;;;4958968;28;20652;-80
2023/05/27 06:36:10;;;;;;;18.25;5.00;;;11.50;99.90;;;;;;4943061;28;20043;-80
2023/05/27 06:38:36;;;;;;;14.73;5.35;;;11.70;99.90;;;;;;4960328;28;20058;-80
2023/05/27 06:41:02;;;;;;;18.65;4.97;;;11.70;99.90;;;;;;4944830;28;20054;-80
2023/05/27 06:43:28;;;;;;;25.30;5.70;;;11.80;99.90;;;;;;4960950;28;20050;-80
2023/05/27 06:45:53;;;;;;;17.67;5.38;;;11.70;99.90;;;;;;4961347;28;20125;-80
2023/05/27 06:48:19;;;;;;;18.77;5.30;;;12.00;99.90;;;;;;4960648;28;20077;-79
2023/05/27 06:50:44;;;;;;;20.45;4.85;;;12.40;99.90;;;;;;4976803;28;20122;-79
2023/05/27 06:53:10;;;;;;;16.67;5.13;;;12.70;99.90;;;;;;4968280;28;20152;-80
2023/05/27 06:55:36;;;;;;;18.65;4.65;;;12.70;99.90;;;;;;4978087;28;20030;-80
2023/05/27 06:58:02;;;;;;;16.35;4.55;;;12.50;99.90;;;;;;4975534;28;20046;-80
2023/05/27 07:00:27;;;;;;;11.15;4.50;;;12.90;99.90;;;;;;4978196;28;20097;-80
2023/05/27 07:02:53;;;;;;;17.50;4.80;;;12.90;99.90;;;;;;4961189;28;20519;-79
2023/05/27 07:05:19;;;;;;;14.70;5.35;;;13.00;99.90;;;;;;4962210;28;20038;-79
2023/05/27 07:07:45;;;;;;;21.38;5.22;;;13.10;99.90;;;;;;4955200;28;20026;-80
2023/05/27 07:10:11;;;;;;;16.98;5.22;;;13.10;99.90;;;;;;4969540;28;20401;-79
2023/05/27 07:12:37;;;;;;;17.67;4.88;;;13.30;99.90;;;;;;4959914;28;20136;-79
2023/05/27 07:15:03;;;;;;;16.17;5.80;;;13.60;99.90;;;;;;4976684;28;20247;-80
2023/05/27 07:17:29;;;;;;;22.65;5.47;;;13.50;99.90;;;;;;4956937;28;20034;-79
2023/05/27 07:19:54;;;;;;;15.57;5.20;;;13.30;99.90;;;;;;4960655;28;20524;-79
2023/05/27 07:22:20;;;;;;;13.07;5.10;;;13.40;99.90;;;;;;4974336;28;20101;-79
2023/05/27 07:24:46;;;;;;;18.85;7.32;;;13.40;99.90;;;;;;4976312;28;20038;-79
2023/05/27 07:27:11;;;;;;;14.80;5.50;;;13.50;99.90;;;;;;4958350;28;20611;-79
2023/05/27 07:29:37;;;;;;;16.65;5.78;;;13.80;99.90;;;;;;4977915;28;20162;-79
2023/05/27 07:32:03;;;;;;;17.92;5.93;;;13.80;99.90;;;;;;4961195;28;20046;-79
2023/05/27 07:34:30;;;;;;;20.70;5.57;;;14.00;99.90;;;;;;4975643;28;20069;-79
2023/05/27 07:36:56;;;;;;;18.17;6.30;;;14.00;99.90;;;;;;4976465;28;20042;-80
2023/05/27 07:39:21;;;;;;;17.80;5.60;;;14.10;99.90;;;;;;4954539;28;20908;-79
2023/05/27 07:41:47;;;;;;;17.73;4.72;;;14.30;99.90;;;;;;4961076;28;20466;-79
2023/05/27 07:44:13;;;;;;;12.50;4.75;;;14.40;99.90;;;;;;4956347;28;20039;-80
2023/05/27 07:46:38;;;;;;;15.52;5.20;;;14.60;99.90;;;;;;4957368;28;20070;-80
2023/05/27 07:49:05;;;;;;;17.17;5.60;;;14.70;99.90;;;;;;4939715;28;20042;-80
2023/05/27 07:51:31;;;;;;;14.32;4.78;;;14.60;99.90;;;;;;4957396;28;20121;-79
2023/05/27 07:53:57;;;;;;;16.95;5.00;;;14.80;99.90;;;;;;4954887;28;20441;-80
2023/05/27 07:56:22;;;;;;;18.23;5.15;;;14.80;99.90;;;;;;4943401;28;20046;-80
2023/05/27 07:58:48;;;;;;;16.83;5.68;;;15.10;99.90;;;;;;4955490;28;20038;-79
2023/05/27 08:01:14;;;;;;;22.92;5.55;;;15.30;99.90;;;;;;4954490;28;20492;-80
2023/05/27 08:03:39;;;;;;;17.67;5.55;;;15.30;99.90;;;;;;4960356;28;20038;-80
2023/05/27 08:06:05;;;;;;;18.80;5.20;;;15.20;99.90;;;;;;4970183;28;20065;-80
2023/05/27 08:08:31;;;;;;;16.02;5.10;;;14.70;99.90;;;;;;4955247;28;20118;-80
2023/05/27 08:10:57;;;;;;;17.90;4.35;;;15.40;99.90;;;;;;4961325;28;20038;-80
2023/05/27 08:13:22;;;;;;;12.43;3.75;;;15.80;99.90;;;;;;4982460;28;20156;-79
2023/05/27 08:15:48;;;;;;;16.80;4.50;;;15.80;99.90;;;;;;4996825;28;20521;-80
2023/05/27 08:18:14;;;;;;;14.98;4.65;;;15.90;99.90;;;;;;5003048;28;21108;-80
2023/05/27 08:20:40;;;;;;;15.65;4.85;;;15.80;99.90;;;;;;4991279;28;20046;-80
2023/05/27 08:23:06;;;;;;;14.80;4.32;;;15.70;99.90;;;;;;4989823;28;20356;-80
2023/05/27 08:25:31;;;;;;;12.75;4.82;;;15.50;99.90;;;;;;4991055;28;20124;-80
2023/05/27 08:28:01;;;;;;;13.50;4.35;;;15.50;99.90;;;;;;4992857;28;20118;-80
2023/05/27 08:30:28;;;;;;;18.55;5.13;;;15.90;99.90;;;;;;5013091;28;20205;-80
2023/05/27 08:32:55;;;;;;;14.93;4.40;;;15.90;99.90;;;;;;5011462;28;20054;-80
2023/05/27 08:35:21;;;;;;;18.77;4.85;;;16.10;99.90;;;;;;4997171;28;20041;-80
2023/05/27 08:37:47;;;;;;;16.67;4.20;;;16.00;99.90;;;;;;5011086;28;20493;-80
2023/05/27 08:40:14;;;;;;;13.75;3.90;;;16.00;99.90;;;;;;4992979;28;20453;-79
2023/05/27 08:42:40;;;;;;;13.90;4.47;;;15.90;99.90;;;;;;4998012;28;20038;-80
2023/05/27 08:45:12;;;;;;;13.60;4.65;;;16.00;99.90;;;;;;4998979;28;20045;-80
2023/05/27 08:47:38;;;;;;;17.92;4.70;;;16.30;99.90;;;;;;5011808;28;20296;-80
2023/05/27 08:50:07;;;;;;;15.30;4.75;;;15.70;99.90;;;;;;4976008;28;20108;-80
2023/05/27 08:52:33;;;;;;;14.70;4.30;;;16.00;99.90;;;;;;4995767;28;20063;-79
2023/05/27 08:55:01;;;;;;;15.02;4.53;;;16.10;99.90;;;;;;4997932;28;20516;-80
2023/05/27 08:57:29;;;;;;;17.00;4.70;;;16.20;99.90;;;;;;5014646;28;20462;-80
2023/05/27 08:59:56;;;;;;;16.60;5.10;;;16.50;99.90;;;;;;4980108;28;20130;-79
2023/05/27 09:02:23;;;;;;;18.52;4.68;;;16.70;99.90;;;;;;5007554;28;20048;-80
2023/05/27 09:04:49;;;;;;;15.60;4.57;;;16.30;99.90;;;;;;5009146;28;20029;-80
2023/05/27 09:07:16;;;;;;;13.30;4.53;;;16.60;99.90;;;;;;4993909;28;20340;-80
2023/05/27 09:09:42;;;;;;;18.83;4.93;;;16.60;99.90;;;;;;5011399;28;20049;-80
2023/05/27 09:12:10;;;;;;;14.55;4.40;;;17.00;99.90;;;;;;5010220;28;20058;-80
2023/05/27 09:14:42;;;;;;;14.43;4.78;;;16.90;99.90;;;;;;4998729;28;20045;-79
2023/05/27 09:17:08;;;;;;;16.50;4.88;;;16.90;27.20;;;;;;4997354;28;20050;-80
2023/05/27 09:19:34;;;;;;;16.80;4.72;;;16.80;99.90;;;;;;4978600;28;20069;-80
2023/05/27 09:22:01;;;;;;;12.02;4.45;;;16.90;99.90;;;;;;4998643;28;20860;-80
2023/05/27 09:24:26;;;;;;;14.35;4.28;;;17.20;99.90;;;;;;4996721;28;20038;-79
2023/05/27 09:26:55;;;;;;;15.20;4.70;;;16.90;1.00;;;;;;4991795;28;20157;-80
2023/05/27 09:29:28;;;;;;;12.38;4.35;;;16.90;99.90;;;;;;4992795;28;20481;-80
2023/05/27 09:31:57;;;;;;;19.92;5.57;;;17.20;99.90;;;;;;4979799;28;20056;-80
2023/05/27 09:34:23;;;;;;;12.20;4.15;;;17.40;99.90;;;;;;4980304;28;20042;-80
2023/05/27 09:36:51;;;;;;;18.58;5.20;;;17.70;99.90;;;;;;5011081;28;20053;-80
2023/05/27 09:39:22;;;;;;;14.68;4.70;;;17.60;1.00;;;;;;4977841;28;20337;-80
2023/05/27 09:41:53;;;;;;;12.48;4.53;;;17.80;16.40;;;;;;4997771;28;20121;-80
2023/05/27 09:44:18;;;;;;;13.45;4.60;;;17.70;99.90;;;;;;4975263;28;20063;-80
2023/05/27 09:46:45;;;;;;;15.60;4.80;;;17.40;99.90;;;;;;5013717;28;20042;-80
2023/05/27 09:49:14;;;;;;;16.30;4.68;;;17.50;99.90;;;;;;4993364;28;20060;-79
2023/05/27 09:51:41;;;;;;;13.52;4.78;;;17.80;74.40;;;;;;4980153;28;20050;-80
2023/05/27 09:54:08;;;;;;;12.38;4.25;;;18.10;99.90;;;;;;5008341;28;20073;-80
2023/05/27 09:56:34;;;;;;;13.77;4.75;;;18.30;99.90;;;;;;4996532;28;20057;-79
2023/05/27 09:59:00;;;;;;;15.10;5.03;;;17.30;6.70;;;;;;4993897;28;20041;-80
2023/05/27 10:01:28;;;;;;;17.38;4.75;;;17.90;94.90;;;;;;5014657;28;20034;-79
2023/05/27 10:03:58;;;;;;;14.55;5.05;;;17.90;1.00;;;;;;4980056;28;20387;-80
2023/05/27 10:06:25;;;;;;;17.42;4.80;;;18.30;99.90;;;;;;5011201;28;20392;-80
2023/05/27 10:08:55;;;;;;;14.70;4.57;;;18.50;99.90;;;;;;5011588;28;20722;-79
2023/05/27 10:11:21;;;;;;;12.90;4.55;;;18.90;99.90;;;;;;4996459;28;20120;-80
2023/05/27 10:13:49;;;;;;;10.00;4.50;;;18.60;1.00;;;;;;4950003;28;20101;-80
2023/05/27 10:16:20;;;;;;;13.55;4.80;;;18.70;1.00;;;;;;4961768;28;20046;-80
2023/05/27 10:18:56;;;;;;;15.30;4.75;;;18.50;1.00;;;;;;4973996;28;20034;-80
2023/05/27 10:21:25;;;;;;;16.85;4.63;;;18.70;99.90;;;;;;4978688;28;20034;-80
2023/05/27 10:23:59;;;;;;;11.98;4.82;;;18.80;99.90;;;;;;4941495;28;20166;-80
2023/05/27 10:26:33;;;;;;;14.77;4.80;;;19.10;99.90;;;;;;4961199;28;20046;-80
2023/05/27 10:29:10;;;;;;;15.13;4.97;;;19.30;99.90;;;;;;4944016;28;20508;-80
2023/05/27 10:31:52;;;;;;;15.93;5.03;;;19.20;99.90;;;;;;4941800;28;20064;-80
2023/05/27 10:34:18;;;;;;;15.45;4.78;;;18.40;99.90;;;;;;4954868;28;20469;-80
2023/05/27 10:36:45;;;;;;;15.20;5.07;;;18.10;99.90;;;;;;4943202;28;20417;-80
2023/05/27 10:39:18;;;;;;;15.40;4.57;;;19.00;99.90;;;;;;4959099;28;20064;-80
2023/05/27 10:41:54;;;;;;;12.63;4.72;;;19.20;18.20;;;;;;4979623;28;20039;-80
2023/05/27 10:44:34;;;;;;;13.30;5.03;;;19.40;99.90;;;;;;4974654;28;20474;-80
2023/05/27 10:47:03;;;;;;;17.13;4.80;;;18.80;1.00;;;;;;4956823;28;20566;-80
2023/05/27 10:49:37;;;;;;;12.73;5.05;;;18.70;37.00;;;;;;4957812;28;20046;-80
2023/05/27 10:52:17;;;;;;;17.80;5.43;;;19.00;99.90;;;;;;4958338;28;20073;-80
2023/05/27 10:54:47;;;;;;;11.75;4.70;;;18.20;99.90;;;;;;4947862;28;20141;-80
2023/05/27 10:57:13;;;;;;;15.73;4.85;;;18.70;99.90;;;;;;4965005;28;20508;-80
2023/05/27 10:59:40;;;;;;;11.93;4.70;;;18.90;1.00;;;;;;4959759;28;20466;-80
2023/05/27 11:02:06;;;;;;;27.08;8.55;;;19.00;1.00;;;;;;4955854;28;20675;-80
2023/05/27 11:04:36;;;;;;;12.60;5.30;;;18.80;99.90;;;;;;4975338;28;20073;-79
2023/05/27 11:07:03;;;;;;;10.35;5.05;;;19.00;99.90;;;;;;4969737;28;20371;-79
2023/05/27 11:09:29;;;;;;;16.02;5.40;;;19.60;99.90;;;;;;4959265;28;20568;-80
2023/05/27 11:11:56;;;;;;;13.45;4.93;;;19.10;1.00;;;;;;4959734;28;20074;-80
2023/05/27 11:14:23;;;;;;;14.32;5.38;;;19.20;99.90;;;;;;4957375;28;20042;-79
2023/05/27 11:16:51;;;;;;;14.57;4.68;;;19.50;99.90;;;;;;4960123;28;20045;-80
2023/05/27 11:19:18;;;;;;;16.88;5.68;;;19.50;99.90;;;;;;4942874;28;20485;-80
2023/05/27 11:21:50;;;;;;;14.35;4.78;;;19.60;1.00;;;;;;4976974;28;20051;-79
2023/05/27 11:24:19;;;;;;;13.95;5.00;;;20.20;99.90;;;;;;4960146;28;20065;-79
2023/05/27 11:26:49;;;;;;;22.88;6.15;;;20.30;1.00;;;;;;4976562;28;20043;-79
2023/05/27 11:29:15;;;;;;;14.48;5.40;;;19.60;99.90;;;;;;4978152;28;20421;-80
2023/05/27 11:31:46;;;;;;;11.10;4.25;;;20.00;99.90;;;;;;4981477;28;20050;-79
2023/05/27 11:34:13;;;;;;;12.50;4.68;;;19.20;9.50;;;;;;4978448;28;20073;-80
2023/05/27 11:36:40;;;;;;;15.30;4.85;;;20.10;99.90;;;;;;4942187;28;20129;-80
2023/05/27 11:39:06;;;;;;;13.23;4.47;;;20.40;99.90;;;;;;4975925;28;20105;-79
2023/05/27 11:41:32;;;;;;;11.45;4.78;;;21.10;99.90;;;;;;4977483;28;20042;-80
2023/05/27 11:44:03;;;;;;;11.77;4.93;;;21.20;99.90;;;;;;4974456;28;20039;-80
2023/05/27 11:46:41;;;;;;;10.02;4.22;;;21.50;99.90;;;;;;4980059;28;20048;-79
2023/05/27 11:49:10;;;;;;;12.93;4.40;;;21.40;33.80;;;;;;4969988;28;20042;-80
2023/05/27 11:51:46;;;;;;;13.85;4.82;;;21.10;99.90;;;;;;4969238;28;20081;-80
2023/05/27 11:54:21;;;;;;;13.55;4.85;;;21.20;99.90;;;;;;4941830;28;20042;-80
2023/05/27 11:56:47;;;;;;;;;;;21.30;8.40;;;;;;4954598;28;20055;-80
2023/05/27 11:59:13;;;;;;;12.40;4.68;;;21.60;99.90;;;;;;4972893;28;20360;-80
2023/05/27 12:01:40;;;;;;;11.57;4.47;;;21.70;1.00;;;;;;4960661;28;20046;-80
2023/05/27 12:04:06;;;;;;;11.00;4.70;;;20.80;1.00;;;;;;4971207;28;20074;-80
2023/05/27 12:06:32;;;;;;;14.65;5.60;;;21.00;99.90;;;;;;4953969;28;20076;-80
2023/05/27 12:08:58;;;;;;;10.20;4.20;;;20.50;99.90;;;;;;4953546;28;21010;-80
2023/05/27 12:11:24;;;;;;;11.93;4.88;;;21.50;99.90;;;;;;4956262;28;20054;-80
2023/05/27 12:13:51;;;;;;;12.38;4.80;;;21.10;1.00;;;;;;4993601;28;20057;-80
2023/05/27 12:16:17;;;;;;;17.02;5.18;;;21.80;99.90;;;;;;5012294;28;20075;-79
2023/05/27 12:18:42;;;;;;;12.20;4.30;;;22.00;99.90;;;;;;4992378;28;20064;-79
2023/05/27 12:21:08;;;;;;;10.15;4.40;;;22.10;99.90;;;;;;5010032;28;20400;-80
2023/05/27 12:23:34;;;;;;;13.73;5.05;;;21.50;1.00;;;;;;4990209;28;20046;-80
2023/05/27 12:26:00;;;;;;;10.95;4.50;;;21.20;1.00;;;;;;4995223;28;20041;-81
2023/05/27 12:28:26;;;;;;;11.25;4.72;;;22.10;49.90;;;;;;4995766;28;20500;-79
2023/05/27 12:30:51;;;;;;;14.93;4.55;;;21.60;6.70;;;;;;4979036;28;20046;-80
2023/05/27 12:33:17;;;;;;;15.43;4.95;;;21.40;1.00;;;;;;4993065;28;20042;-79
2023/05/27 12:35:43;;;;;;;16.05;5.25;;;21.90;1.00;;;;;;4995562;28;20042;-79
2023/05/27 12:38:09;;;;;;;12.98;4.72;;;22.20;1.00;;;;;;4987461;28;20054;-79
2023/05/27 12:40:35;;;;;;;13.07;4.35;;;22.40;99.90;;;;;;5005544;28;20121;-80
2023/05/27 12:43:03;;;;;;;10.75;4.40;;;22.30;99.90;;;;;;4975818;28;20572;-79